Time;durP1;ratioP1;P1;durP2;ratioP2;P2;SDS_P1;SDS_P2;PMS_P1;PMS_P2;Temp;Humidity;BMP_temperature;BMP_pressure;BME280_temperature;BME280_humidity;BME280_pressure;Samples;Min_cycle;Max_cycle;Signal;HPM_P1;HPM_P2
2021/08/29 00:01:57;;;;;;;0.80;0.60;;;16.70;99.90;;;;;;5030856;28;20203;-77
2021/08/29 00:04:23;;;;;;;1.07;0.87;;;16.70;99.90;;;;;;5026856;28;20172;-77
2021/08/29 00:06:48;;;;;;;0.70;0.50;;;16.70;99.90;;;;;;5025483;28;20547;-78
2021/08/29 00:09:14;;;;;;;0.93;0.60;;;16.70;99.90;;;;;;5017963;28;20278;-78
2021/08/29 00:11:40;;;;;;;1.90;0.70;;;16.70;99.90;;;;;;5010592;28;20431;-78
2021/08/29 00:14:05;;;;;;;0.97;0.73;;;16.70;99.90;;;;;;5012133;28;20176;-77
2021/08/29 00:16:31;;;;;;;0.80;0.80;;;16.70;99.90;;;;;;5024678;28;20233;-78
2021/08/29 00:18:57;;;;;;;5.17;1.13;;;16.60;99.90;;;;;;5028479;28;20191;-78
2021/08/29 00:21:23;;;;;;;1.33;0.70;;;16.50;99.90;;;;;;5031940;28;20782;-77
2021/08/29 00:23:48;;;;;;;0.80;0.60;;;16.50;99.90;;;;;;5018632;28;20510;-77
2021/08/29 00:26:14;;;;;;;0.80;0.60;;;16.50;99.90;;;;;;5018577;28;20180;-77
2021/08/29 00:28:39;;;;;;;1.00;0.90;;;16.50;99.90;;;;;;5019668;28;20191;-77
2021/08/29 00:31:05;;;;;;;2.53;1.37;;;16.40;99.90;;;;;;5019930;28;20176;-78
2021/08/29 00:33:30;;;;;;;0.77;0.70;;;16.50;99.90;;;;;;5019606;28;20266;-78
2021/08/29 00:35:57;;;;;;;0.90;0.90;;;16.50;99.90;;;;;;5020571;28;20211;-77
2021/08/29 00:38:22;;;;;;;1.27;0.73;;;16.40;99.90;;;;;;5020506;28;20191;-77
2021/08/29 00:40:49;;;;;;;0.97;0.97;;;16.40;99.90;;;;;;5036787;28;20515;-78
2021/08/29 00:43:15;;;;;;;1.20;0.93;;;16.40;99.90;;;;;;5033177;28;20172;-77
2021/08/29 00:45:42;;;;;;;0.70;0.50;;;16.40;99.90;;;;;;5017495;28;20412;-78
2021/08/29 00:48:09;;;;;;;0.70;0.50;;;16.40;99.90;;;;;;5018148;28;20681;-78
2021/08/29 00:50:35;;;;;;;0.70;0.50;;;16.40;99.90;;;;;;5031212;28;20507;-77
2021/08/29 00:53:06;;;;;;;0.70;0.60;;;16.50;99.90;;;;;;5020431;28;20426;-78
2021/08/29 00:55:31;;;;;;;0.83;0.80;;;16.50;99.90;;;;;;5020841;28;20513;-78
2021/08/29 00:57:57;;;;;;;0.70;0.50;;;16.40;99.90;;;;;;5022731;28;20987;-77
2021/08/29 01:00:22;;;;;;;0.70;0.50;;;16.40;99.90;;;;;;5021182;28;20279;-79
2021/08/29 01:02:48;;;;;;;0.80;0.80;;;16.30;99.90;;;;;;5030072;28;20172;-78
2021/08/29 01:05:22;;;;;;;0.80;0.77;;;16.30;99.90;;;;;;5022200;28;20176;-78
2021/08/29 01:08:03;;;;;;;1.40;1.30;;;16.30;99.90;;;;;;5021712;28;20518;-78
2021/08/29 01:10:42;;;;;;;0.77;0.73;;;16.30;99.90;;;;;;5037877;28;20812;-77
2021/08/29 01:13:16;;;;;;;0.70;0.60;;;16.20;99.90;;;;;;5028995;28;20421;-77
2021/08/29 01:15:43;;;;;;;1.90;0.87;;;16.20;99.90;;;;;;5030269;28;20426;-77
2021/08/29 01:18:10;;;;;;;0.93;0.83;;;16.20;99.90;;;;;;5029546;28;20863;-77
2021/08/29 01:20:55;;;;;;;0.70;0.50;;;16.10;99.90;;;;;;5013580;28;20538;-77
2021/08/29 01:23:22;;;;;;;1.67;1.57;;;16.10;99.90;;;;;;5014973;28;20449;-78
2021/08/29 01:25:56;;;;;;;1.00;0.80;;;16.10;99.90;;;;;;5014230;28;20451;-77
2021/08/29 01:28:26;;;;;;;0.80;0.70;;;16.10;99.90;;;;;;5018407;28;20485;-77
2021/08/29 01:30:53;;;;;;;0.70;0.50;;;16.10;99.90;;;;;;5020157;28;20418;-76
2021/08/29 01:33:19;;;;;;;0.80;0.60;;;16.20;99.90;;;;;;5031684;28;20434;-78
2021/08/29 01:35:45;;;;;;;1.23;1.10;;;16.10;99.90;;;;;;5016322;28;20411;-78
2021/08/29 01:38:11;;;;;;;0.70;0.50;;;16.10;99.90;;;;;;5016762;28;20585;-77
2021/08/29 01:40:37;;;;;;;0.70;0.50;;;16.20;99.90;;;;;;5026259;28;20967;-77
2021/08/29 01:43:04;;;;;;;1.10;0.80;;;16.10;99.90;;;;;;5024050;28;20266;-78
2021/08/29 01:45:31;;;;;;;0.90;0.67;;;16.20;99.90;;;;;;5031061;28;20422;-78
2021/08/29 01:47:58;;;;;;;1.83;1.73;;;16.10;99.90;;;;;;5036504;28;20433;-77
2021/08/29 01:50:25;;;;;;;1.00;0.90;;;16.10;99.90;;;;;;5037336;28;20415;-79
2021/08/29 01:52:51;;;;;;;0.80;0.60;;;16.10;99.90;;;;;;5027250;28;20441;-78
2021/08/29 01:55:16;;;;;;;2.10;1.77;;;16.10;99.90;;;;;;5034370;28;20880;-79
2021/08/29 01:57:42;;;;;;;0.70;0.60;;;16.20;99.90;;;;;;5020158;28;20177;-79
2021/08/29 02:00:08;;;;;;;0.70;0.50;;;16.10;99.90;;;;;;5016608;28;20558;-77
2021/08/29 02:02:34;;;;;;;1.10;0.80;;;16.20;99.90;;;;;;5015171;28;20180;-78
2021/08/29 02:05:00;;;;;;;1.43;1.33;;;16.10;99.90;;;;;;5025768;28;20510;-77
2021/08/29 02:07:36;;;;;;;0.70;0.50;;;16.20;99.90;;;;;;5012524;28;20168;-77
2021/08/29 02:10:06;;;;;;;1.80;1.70;;;16.10;99.90;;;;;;5014774;28;20211;-77
2021/08/29 02:12:37;;;;;;;1.00;0.73;;;16.10;99.90;;;;;;5031607;28;20505;-77
2021/08/29 02:15:08;;;;;;;0.70;0.53;;;16.10;99.90;;;;;;5031096;28;20409;-77
2021/08/29 02:17:35;;;;;;;1.40;1.30;;;16.10;99.90;;;;;;5017752;28;20472;-78
2021/08/29 02:20:05;;;;;;;0.80;0.60;;;16.10;99.90;;;;;;5015961;28;20459;-78
2021/08/29 02:22:33;;;;;;;0.83;0.73;;;16.10;99.90;;;;;;5014547;28;20460;-78
2021/08/29 02:24:59;;;;;;;2.03;0.70;;;16.10;99.90;;;;;;5019487;28;20423;-78
2021/08/29 02:27:25;;;;;;;0.70;0.50;;;16.00;99.90;;;;;;5033113;28;20422;-77
2021/08/29 02:29:50;;;;;;;0.80;0.70;;;16.00;99.90;;;;;;5021205;28;20482;-78
2021/08/29 02:32:17;;;;;;;1.00;0.90;;;16.00;99.90;;;;;;5013893;28;20178;-77
2021/08/29 02:34:43;;;;;;;0.80;0.60;;;16.00;99.90;;;;;;5036956;28;20258;-78
2021/08/29 02:37:10;;;;;;;0.80;0.80;;;16.00;99.90;;;;;;5037488;28;20418;-78
2021/08/29 02:39:37;;;;;;;2.83;2.63;;;16.00;99.90;;;;;;5012848;28;20434;-77
2021/08/29 02:42:05;;;;;;;1.83;0.80;;;16.00;99.90;;;;;;5014616;28;20458;-78
2021/08/29 02:44:31;;;;;;;1.17;0.80;;;16.00;99.90;;;;;;5016350;28;20474;-78
2021/08/29 02:46:57;;;;;;;0.70;0.50;;;16.00;99.90;;;;;;5028859;28;20508;-78
2021/08/29 02:49:23;;;;;;;1.20;0.90;;;16.00;99.90;;;;;;5029468;28;20445;-78
2021/08/29 02:51:50;;;;;;;0.90;0.70;;;15.90;99.90;;;;;;5029229;28;20419;-77
2021/08/29 02:54:16;;;;;;;0.77;0.70;;;15.90;99.90;;;;;;5029277;28;20417;-77
2021/08/29 02:56:43;;;;;;;1.00;0.90;;;15.90;99.90;;;;;;5016918;28;20948;-78
2021/08/29 02:59:09;;;;;;;0.83;0.83;;;15.90;99.90;;;;;;5019494;28;20473;-78
2021/08/29 03:01:34;;;;;;;1.73;1.50;;;15.80;99.90;;;;;;5019522;28;21161;-77
2021/08/29 03:04:00;;;;;;;0.70;0.60;;;15.90;99.90;;;;;;5025058;28;20214;-78
2021/08/29 03:06:26;;;;;;;0.90;0.77;;;15.80;99.90;;;;;;5014681;28;20168;-78
2021/08/29 03:08:52;;;;;;;0.70;0.53;;;15.80;99.90;;;;;;5015424;28;20443;-78
2021/08/29 03:11:20;;;;;;;4.00;1.43;;;15.80;99.90;;;;;;5027677;28;20179;-77
2021/08/29 03:13:47;;;;;;;0.70;0.50;;;15.80;99.90;;;;;;5032501;28;20174;-77
2021/08/29 03:16:13;;;;;;;1.43;1.33;;;15.90;99.90;;;;;;5031078;28;20517;-77
2021/08/29 03:18:39;;;;;;;1.20;1.00;;;15.80;99.90;;;;;;5025938;28;20874;-77
2021/08/29 03:21:05;;;;;;;0.90;0.77;;;15.80;99.90;;;;;;5031472;28;20465;-78
2021/08/29 03:23:31;;;;;;;1.00;0.80;;;15.90;99.90;;;;;;5032348;28;20403;-77
2021/08/29 03:25:57;;;;;;;1.83;1.73;;;15.90;99.90;;;;;;5031956;28;20173;-78
2021/08/29 03:28:22;;;;;;;0.70;0.70;;;15.90;99.90;;;;;;5023813;28;20185;-79
2021/08/29 03:30:48;;;;;;;1.00;0.80;;;15.90;99.90;;;;;;5018570;28;20168;-79
2021/08/29 03:33:14;;;;;;;0.80;0.60;;;15.90;99.90;;;;;;5018195;28;20539;-78
2021/08/29 03:35:39;;;;;;;0.70;0.50;;;15.90;99.90;;;;;;5022564;28;20192;-78
2021/08/29 03:38:06;;;;;;;1.70;0.63;;;15.90;99.90;;;;;;5027293;28;20231;-78
2021/08/29 03:40:32;;;;;;;0.70;0.50;;;15.80;99.90;;;;;;5019936;28;20214;-78
2021/08/29 03:42:58;;;;;;;3.23;1.83;;;15.80;99.90;;;;;;5029958;28;20446;-78
2021/08/29 03:45:24;;;;;;;1.63;0.87;;;15.80;99.90;;;;;;5013111;28;20410;-77
2021/08/29 03:47:49;;;;;;;2.20;0.90;;;15.80;99.90;;;;;;5013685;28;20224;-77
2021/08/29 03:50:15;;;;;;;1.93;1.60;;;15.90;99.90;;;;;;5012095;28;20184;-77
2021/08/29 03:52:41;;;;;;;0.70;0.50;;;15.80;99.90;;;;;;5011650;28;20267;-77
2021/08/29 03:55:08;;;;;;;1.80;1.63;;;15.80;99.90;;;;;;5028131;28;20437;-77
2021/08/29 03:57:36;;;;;;;2.17;1.80;;;15.80;99.90;;;;;;5025184;28;20434;-77
2021/08/29 04:00:01;;;;;;;0.80;0.80;;;15.80;99.90;;;;;;5015026;28;20466;-77
2021/08/29 04:02:27;;;;;;;0.80;0.60;;;15.70;99.90;;;;;;5013690;28;20434;-78
2021/08/29 04:04:53;;;;;;;1.27;0.80;;;15.80;99.90;;;;;;5027673;28;20583;-77
2021/08/29 04:07:19;;;;;;;0.80;0.70;;;15.80;99.90;;;;;;5025934;28;20187;-77
2021/08/29 04:09:45;;;;;;;2.10;1.90;;;15.80;99.90;;;;;;5016162;28;20188;-77
2021/08/29 04:12:13;;;;;;;0.70;0.60;;;15.80;99.90;;;;;;5015682;28;20180;-77
2021/08/29 04:14:40;;;;;;;1.40;1.07;;;15.80;99.90;;;;;;5029732;28;20434;-77
2021/08/29 04:17:08;;;;;;;1.27;1.17;;;15.70;99.90;;;;;;5031192;28;20438;-77
2021/08/29 04:19:37;;;;;;;0.70;0.60;;;15.70;99.90;;;;;;5034542;28;20461;-77
2021/08/29 04:22:03;;;;;;;0.80;0.60;;;15.80;99.90;;;;;;5035536;28;20465;-77
2021/08/29 04:24:29;;;;;;;1.53;1.10;;;15.80;99.90;;;;;;5034281;28;20456;-77
2021/08/29 04:26:55;;;;;;;0.70;0.60;;;15.80;99.90;;;;;;5036800;28;20172;-78
2021/08/29 04:29:20;;;;;;;1.00;0.90;;;15.80;99.90;;;;;;5020882;28;20222;-77
2021/08/29 04:31:51;;;;;;;1.13;1.00;;;15.80;99.90;;;;;;5029383;28;20879;-77
2021/08/29 04:34:17;;;;;;;0.80;0.80;;;15.90;99.90;;;;;;5022519;28;20621;-77
2021/08/29 04:36:42;;;;;;;0.80;0.70;;;15.90;99.90;;;;;;5014937;28;20486;-77
2021/08/29 04:39:08;;;;;;;1.97;1.87;;;15.90;99.90;;;;;;5023147;28;20204;-78
2021/08/29 04:41:36;;;;;;;0.83;0.60;;;16.00;99.90;;;;;;5018888;28;20665;-78
2021/08/29 04:44:02;;;;;;;0.70;0.60;;;16.00;99.90;;;;;;5018081;28;20164;-78
2021/08/29 04:46:28;;;;;;;1.60;0.90;;;16.00;99.90;;;;;;5035908;28;20873;-77
2021/08/29 04:48:54;;;;;;;0.70;0.57;;;16.00;99.90;;;;;;5029271;28;20966;-78
2021/08/29 04:51:19;;;;;;;3.13;2.60;;;15.90;99.90;;;;;;5038239;28;20441;-78
2021/08/29 04:53:45;;;;;;;1.37;1.27;;;15.90;99.90;;;;;;5032005;28;20187;-79
2021/08/29 04:56:10;;;;;;;0.70;0.50;;;15.90;99.90;;;;;;5014605;28;20274;-77
2021/08/29 04:58:36;;;;;;;1.63;1.30;;;15.90;99.90;;;;;;5018637;28;20672;-77
2021/08/29 05:01:02;;;;;;;0.70;0.50;;;15.90;99.90;;;;;;5022105;28;20211;-77
2021/08/29 05:03:27;;;;;;;0.80;0.70;;;15.80;99.90;;;;;;5026377;28;20230;-78
2021/08/29 05:05:53;;;;;;;0.70;0.53;;;15.80;99.90;;;;;;5039206;28;20403;-79
2021/08/29 05:08:19;;;;;;;1.50;0.70;;;15.90;99.90;;;;;;5024056;28;20286;-78
2021/08/29 05:10:44;;;;;;;1.00;0.70;;;15.80;99.90;;;;;;5019387;28;20258;-79
2021/08/29 05:13:10;;;;;;;2.10;1.43;;;15.80;99.90;;;;;;5015498;28;20696;-77
2021/08/29 05:15:35;;;;;;;1.07;0.97;;;15.80;99.90;;;;;;5016099;28;20184;-78
2021/08/29 05:18:01;;;;;;;0.90;0.80;;;15.80;99.90;;;;;;5015940;28;20238;-77
2021/08/29 05:20:27;;;;;;;2.70;1.37;;;15.80;99.90;;;;;;5014394;28;20196;-77
2021/08/29 05:22:53;;;;;;;0.70;0.60;;;15.90;99.90;;;;;;5019945;28;20661;-78
2021/08/29 05:25:18;;;;;;;0.90;0.70;;;15.90;99.90;;;;;;5014496;28;20534;-78
2021/08/29 05:27:44;;;;;;;0.77;0.63;;;15.80;99.90;;;;;;5025926;28;20453;-77
2021/08/29 05:30:10;;;;;;;0.80;0.80;;;15.90;99.90;;;;;;5028324;28;20180;-79
2021/08/29 05:32:36;;;;;;;0.83;0.70;;;15.90;99.90;;;;;;5025194;28;20176;-79
2021/08/29 05:35:01;;;;;;;2.63;1.87;;;16.00;99.90;;;;;;5020211;28;20421;-79
2021/08/29 05:37:27;;;;;;;11.90;0.90;;;16.00;99.90;;;;;;5024147;28;20171;-76
2021/08/29 05:39:52;;;;;;;0.70;0.60;;;16.00;99.90;;;;;;5025925;28;20180;-78
2021/08/29 05:42:18;;;;;;;0.90;0.60;;;16.00;99.90;;;;;;5020530;28;20214;-79
2021/08/29 05:44:44;;;;;;;0.70;0.50;;;16.00;99.90;;;;;;5017447;28;20198;-78
2021/08/29 05:47:09;;;;;;;1.53;1.33;;;16.00;99.90;;;;;;5016062;28;20180;-78
2021/08/29 05:49:35;;;;;;;0.90;0.70;;;16.00;99.90;;;;;;5031451;28;20286;-78
2021/08/29 05:52:01;;;;;;;0.93;0.80;;;16.00;99.90;;;;;;5030822;28;20606;-77
2021/08/29 05:54:26;;;;;;;1.20;1.10;;;16.00;99.90;;;;;;5030834;28;20179;-77
2021/08/29 05:56:52;;;;;;;0.90;0.70;;;16.00;99.90;;;;;;5033777;28;20184;-78
2021/08/29 05:59:17;;;;;;;1.30;1.03;;;16.00;99.90;;;;;;5029205;28;20299;-78
2021/08/29 06:01:43;;;;;;;1.00;0.73;;;16.10;99.90;;;;;;5016034;28;20212;-77
2021/08/29 06:04:08;;;;;;;0.73;0.53;;;16.10;99.90;;;;;;5013235;28;20187;-77
2021/08/29 06:06:34;;;;;;;1.33;1.23;;;16.10;99.90;;;;;;5023887;28;20171;-78
2021/08/29 06:09:00;;;;;;;1.10;0.97;;;16.10;99.90;;;;;;5020992;28;20673;-78
2021/08/29 06:11:26;;;;;;;0.77;0.70;;;16.10;99.90;;;;;;5014521;28;20302;-77
2021/08/29 06:13:51;;;;;;;0.90;0.63;;;16.20;99.90;;;;;;5012522;28;20509;-78
2021/08/29 06:16:17;;;;;;;0.70;0.63;;;16.20;99.90;;;;;;5019272;28;20187;-77
2021/08/29 06:18:42;;;;;;;0.80;0.70;;;16.20;99.90;;;;;;5012896;28;20204;-77
2021/08/29 06:21:08;;;;;;;1.20;0.93;;;16.20;99.90;;;;;;5013601;28;20212;-77
2021/08/29 06:23:33;;;;;;;0.80;0.70;;;16.20;99.90;;;;;;5013982;28;20183;-78
2021/08/29 06:25:59;;;;;;;2.80;2.03;;;16.20;99.90;;;;;;5026523;28;20226;-77
2021/08/29 06:28:25;;;;;;;1.00;0.70;;;16.30;99.90;;;;;;5033300;28;20194;-77
2021/08/29 06:30:50;;;;;;;0.90;0.60;;;16.30;99.90;;;;;;5027691;28;20217;-78
2021/08/29 06:33:16;;;;;;;0.80;0.63;;;16.30;99.90;;;;;;5011627;28;20505;-77
2021/08/29 06:35:41;;;;;;;1.00;0.70;;;16.30;99.90;;;;;;5027495;28;20226;-77
2021/08/29 06:38:07;;;;;;;0.70;0.60;;;16.30;99.90;;;;;;5022251;28;20199;-77
2021/08/29 06:40:32;;;;;;;0.70;0.60;;;16.30;99.90;;;;;;5024843;28;20203;-77
2021/08/29 06:42:58;;;;;;;1.00;0.70;;;16.30;99.90;;;;;;5012950;28;20255;-78
2021/08/29 06:45:23;;;;;;;1.67;1.30;;;16.30;99.90;;;;;;5012586;28;20227;-77
2021/08/29 06:47:49;;;;;;;3.50;1.80;;;16.30;99.90;;;;;;5031797;28;20565;-77
2021/08/29 06:50:14;;;;;;;0.70;0.50;;;16.30;99.90;;;;;;5032881;28;20183;-77
2021/08/29 06:52:40;;;;;;;2.03;1.83;;;16.30;99.90;;;;;;5030191;28;20198;-77
2021/08/29 06:55:06;;;;;;;1.67;1.57;;;16.40;99.90;;;;;;5027322;28;20229;-78
2021/08/29 06:57:32;;;;;;;1.23;0.83;;;16.40;99.90;;;;;;5019217;28;20236;-78
2021/08/29 06:59:57;;;;;;;0.70;0.50;;;16.50;99.90;;;;;;5018377;28;20430;-77
2021/08/29 07:02:23;;;;;;;0.83;0.83;;;16.50;99.90;;;;;;5021219;28;20225;-78
2021/08/29 07:04:49;;;;;;;1.27;1.17;;;16.60;99.90;;;;;;5024418;28;20565;-78
2021/08/29 07:07:14;;;;;;;1.57;1.47;;;16.70;99.90;;;;;;5030935;28;20762;-78
2021/08/29 07:09:41;;;;;;;2.80;1.33;;;16.70;99.90;;;;;;5032590;28;20815;-77
2021/08/29 07:12:08;;;;;;;0.70;0.60;;;16.70;99.90;;;;;;5013310;28;20890;-77
2021/08/29 07:14:33;;;;;;;1.33;1.03;;;16.70;99.90;;;;;;5015496;28;20811;-77
2021/08/29 07:16:59;;;;;;;2.20;2.00;;;16.60;99.90;;;;;;5021267;28;20419;-78
2021/08/29 07:19:25;;;;;;;1.10;0.90;;;16.60;99.90;;;;;;5014722;28;20196;-78
2021/08/29 07:21:50;;;;;;;0.90;0.73;;;16.60;99.90;;;;;;5015941;28;20669;-78
2021/08/29 07:24:16;;;;;;;2.50;2.40;;;16.70;99.90;;;;;;5030737;28;20188;-78
2021/08/29 07:26:41;;;;;;;0.90;0.70;;;16.80;99.90;;;;;;5029916;28;20538;-77
2021/08/29 07:29:07;;;;;;;0.80;0.70;;;16.80;99.90;;;;;;5020050;28;20192;-78
2021/08/29 07:31:32;;;;;;;0.77;0.70;;;16.80;99.90;;;;;;5026698;28;20676;-77
2021/08/29 07:33:58;;;;;;;2.33;2.23;;;16.90;99.90;;;;;;5016007;28;20168;-78
2021/08/29 07:36:24;;;;;;;1.03;0.70;;;16.90;99.90;;;;;;5017679;28;20167;-78
2021/08/29 07:38:50;;;;;;;1.50;1.20;;;17.00;99.90;;;;;;5027322;28;20274;-78
2021/08/29 07:41:15;;;;;;;3.77;0.90;;;17.10;99.90;;;;;;5013324;28;20549;-77
2021/08/29 07:43:41;;;;;;;1.50;1.33;;;17.10;99.90;;;;;;5012302;28;20176;-78
2021/08/29 07:46:07;;;;;;;1.20;0.90;;;17.20;99.90;;;;;;5012245;28;20176;-78
2021/08/29 07:48:33;;;;;;;1.37;0.70;;;17.20;99.90;;;;;;5020137;28;20215;-78
2021/08/29 07:50:58;;;;;;;0.80;0.70;;;17.30;99.90;;;;;;5028809;28;20508;-78
2021/08/29 07:53:24;;;;;;;0.70;0.60;;;17.40;99.90;;;;;;5031633;28;20176;-78
2021/08/29 07:55:49;;;;;;;1.53;0.80;;;17.40;99.90;;;;;;5029100;28;20656;-78
2021/08/29 07:58:15;;;;;;;6.10;2.63;;;17.40;99.90;;;;;;5028927;28;20199;-78
2021/08/29 08:00:41;;;;;;;0.70;0.50;;;17.40;99.90;;;;;;5023665;28;20294;-78
2021/08/29 08:03:06;;;;;;;1.10;1.00;;;17.40;99.90;;;;;;5024376;28;20168;-78
2021/08/29 08:05:32;;;;;;;2.10;1.57;;;17.40;99.90;;;;;;5011889;28;20271;-78
2021/08/29 08:07:59;;;;;;;0.80;0.73;;;17.50;99.90;;;;;;5012124;28;20180;-77
2021/08/29 08:10:25;;;;;;;1.07;0.83;;;17.60;99.90;;;;;;5029388;28;20582;-76
2021/08/29 08:12:51;;;;;;;1.53;0.70;;;17.50;99.90;;;;;;5022826;28;20422;-75
2021/08/29 08:15:16;;;;;;;3.17;2.30;;;17.50;99.90;;;;;;5021522;28;20429;-78
2021/08/29 08:17:42;;;;;;;1.10;0.80;;;17.50;99.90;;;;;;5013260;28;20176;-78
2021/08/29 08:20:08;;;;;;;0.70;0.50;;;17.50;99.90;;;;;;5014060;28;20204;-78
2021/08/29 08:22:34;;;;;;;1.20;0.93;;;17.50;99.90;;;;;;5014165;28;20247;-78
2021/08/29 08:24:59;;;;;;;1.77;1.60;;;17.50;99.90;;;;;;5023674;28;20454;-78
2021/08/29 08:27:25;;;;;;;0.70;0.60;;;17.50;99.90;;;;;;5027365;28;20168;-77
2021/08/29 08:29:51;;;;;;;1.10;0.80;;;17.50;99.90;;;;;;5025520;28;20180;-78
2021/08/29 08:32:16;;;;;;;4.40;0.90;;;17.50;99.90;;;;;;5011944;28;20169;-78
2021/08/29 08:34:42;;;;;;;2.10;1.70;;;17.50;99.90;;;;;;5012184;28;20184;-78
2021/08/29 08:37:07;;;;;;;1.80;1.70;;;17.50;99.90;;;;;;5024084;28;20202;-78
2021/08/29 08:39:33;;;;;;;0.83;0.83;;;17.50;99.90;;;;;;5025682;28;20188;-78
2021/08/29 08:41:59;;;;;;;0.80;0.70;;;17.40;99.90;;;;;;5011837;28;20203;-78
2021/08/29 08:44:24;;;;;;;1.20;0.90;;;17.40;99.90;;;;;;5015542;28;20164;-77
2021/08/29 08:46:53;;;;;;;1.00;0.80;;;17.40;99.90;;;;;;5011123;28;20943;-78
2021/08/29 08:49:20;;;;;;;0.90;0.70;;;17.50;99.90;;;;;;5011793;28;20192;-78
2021/08/29 08:51:46;;;;;;;1.23;1.13;;;17.40;99.90;;;;;;5011799;28;20427;-78
2021/08/29 08:54:16;;;;;;;2.10;1.10;;;17.40;99.90;;;;;;5017570;28;20438;-78
2021/08/29 08:56:41;;;;;;;3.80;1.40;;;17.30;99.90;;;;;;5025607;28;20426;-77
2021/08/29 08:59:07;;;;;;;1.10;0.67;;;17.30;99.90;;;;;;5024532;28;20522;-77
2021/08/29 09:01:32;;;;;;;2.07;1.03;;;17.20;99.90;;;;;;5019029;28;20563;-77
2021/08/29 09:03:58;;;;;;;0.80;0.60;;;17.30;99.90;;;;;;5025430;28;20206;-77
2021/08/29 09:06:24;;;;;;;0.83;0.80;;;17.30;99.90;;;;;;5025885;28;20695;-77
2021/08/29 09:08:50;;;;;;;0.77;0.60;;;17.20;99.90;;;;;;5018006;28;20538;-78
2021/08/29 09:11:15;;;;;;;0.80;0.70;;;17.20;99.90;;;;;;5015219;28;20168;-78
2021/08/29 09:13:47;;;;;;;0.80;0.77;;;17.20;99.90;;;;;;5019327;28;20649;-78
2021/08/29 09:16:18;;;;;;;1.33;1.23;;;17.20;99.90;;;;;;5018526;28;20509;-78
2021/08/29 09:18:47;;;;;;;0.80;0.60;;;17.10;99.90;;;;;;5031143;28;20446;-78
2021/08/29 09:21:28;;;;;;;0.90;0.70;;;17.20;99.90;;;;;;5033288;28;20450;-78
2021/08/29 09:23:56;;;;;;;1.20;0.87;;;17.10;99.90;;;;;;5028102;28;20505;-78
2021/08/29 09:26:24;;;;;;;0.83;0.70;;;17.10;99.90;;;;;;5019266;28;20947;-78
2021/08/29 09:28:53;;;;;;;0.80;0.70;;;17.10;99.90;;;;;;5021777;28;20430;-78
2021/08/29 09:31:19;;;;;;;0.80;0.60;;;17.10;99.90;;;;;;5027801;28;20422;-78
2021/08/29 09:34:01;;;;;;;1.13;1.03;;;17.10;99.90;;;;;;5015276;28;20838;-78
2021/08/29 09:36:30;;;;;;;0.70;0.60;;;17.10;99.90;;;;;;5037070;28;20180;-77
2021/08/29 09:39:14;;;;;;;1.90;1.37;;;17.10;99.90;;;;;;5014548;28;20497;-77
2021/08/29 09:41:41;;;;;;;0.70;0.53;;;17.10;99.90;;;;;;5023855;28;20511;-77
2021/08/29 09:44:10;;;;;;;1.93;1.33;;;17.20;99.90;;;;;;5035232;28;20406;-77
2021/08/29 09:46:54;;;;;;;0.90;0.70;;;17.20;99.90;;;;;;5031129;28;20433;-78
2021/08/29 09:49:31;;;;;;;0.80;0.70;;;17.30;99.90;;;;;;5018315;28;20530;-76
2021/08/29 09:51:59;;;;;;;1.07;0.73;;;17.30;99.90;;;;;;5016807;28;20419;-76
2021/08/29 09:54:41;;;;;;;0.70;0.50;;;17.40;99.90;;;;;;5032647;28;20465;-76
2021/08/29 09:57:08;;;;;;;0.70;0.57;;;17.60;99.90;;;;;;5025269;28;20453;-76
2021/08/29 09:59:37;;;;;;;1.23;1.13;;;17.70;99.90;;;;;;5018591;28;20445;-76
2021/08/29 10:02:03;;;;;;;0.70;0.60;;;17.90;99.90;;;;;;5011947;28;20463;-76
2021/08/29 10:04:29;;;;;;;0.80;0.80;;;18.00;99.90;;;;;;5018930;28;20943;-76
2021/08/29 10:06:55;;;;;;;0.90;0.60;;;18.00;99.90;;;;;;5023668;28;20422;-76
2021/08/29 10:09:27;;;;;;;0.70;0.60;;;18.00;99.90;;;;;;5009992;28;20204;-76
2021/08/29 10:11:53;;;;;;;0.70;0.60;;;18.10;99.90;;;;;;5024056;28;20226;-76
2021/08/29 10:14:20;;;;;;;1.57;1.00;;;18.20;99.90;;;;;;5016555;28;20439;-76
2021/08/29 10:16:47;;;;;;;1.63;1.10;;;18.20;99.90;;;;;;5026587;28;20414;-76
2021/08/29 10:19:15;;;;;;;0.70;0.70;;;18.10;99.90;;;;;;5015515;28;20487;-76
2021/08/29 10:21:41;;;;;;;0.80;0.70;;;18.00;99.90;;;;;;5011888;28;20459;-76
2021/08/29 10:24:10;;;;;;;1.33;0.73;;;18.00;99.90;;;;;;5026064;28;20450;-75
2021/08/29 10:26:40;;;;;;;0.90;0.70;;;18.00;99.90;;;;;;5016769;28;20435;-76
2021/08/29 10:29:11;;;;;;;0.70;0.57;;;17.80;99.90;;;;;;5013879;28;20479;-75
2021/08/29 10:32:03;;;;;;;0.70;0.60;;;17.80;99.90;;;;;;5016800;28;20929;-75
2021/08/29 10:34:31;;;;;;;0.80;0.80;;;17.80;99.90;;;;;;5022058;28;20437;-76
2021/08/29 10:36:57;;;;;;;0.70;0.50;;;17.70;99.90;;;;;;5018505;28;20493;-75
2021/08/29 10:39:23;;;;;;;1.10;0.87;;;17.70;99.90;;;;;;5024367;28;20454;-75
2021/08/29 10:41:49;;;;;;;0.80;0.60;;;17.60;99.90;;;;;;5027245;28;20454;-75
2021/08/29 10:44:16;;;;;;;0.80;0.70;;;17.60;99.90;;;;;;5017354;28;20782;-77
2021/08/29 10:46:45;;;;;;;0.80;0.70;;;17.60;99.90;;;;;;5018982;28;20430;-76
2021/08/29 10:49:13;;;;;;;0.70;0.60;;;17.50;99.90;;;;;;5013776;28;20940;-77
2021/08/29 10:51:39;;;;;;;0.80;0.80;;;17.40;99.90;;;;;;5013218;28;20746;-77
2021/08/29 10:54:11;;;;;;;0.70;0.50;;;17.40;99.90;;;;;;5013140;28;20425;-77
2021/08/29 10:56:37;;;;;;;0.70;0.50;;;17.40;99.90;;;;;;5016835;28;20269;-77
2021/08/29 10:59:08;;;;;;;0.70;0.50;;;17.50;99.90;;;;;;5011483;28;20893;-77
2021/08/29 11:01:34;;;;;;;0.90;0.90;;;17.50;99.90;;;;;;5015199;28;20196;-76
2021/08/29 11:04:20;;;;;;;0.70;0.60;;;17.40;99.90;;;;;;5020275;28;20437;-77
2021/08/29 11:06:51;;;;;;;0.70;0.60;;;17.30;99.90;;;;;;5012365;28;20279;-78
2021/08/29 11:09:31;;;;;;;0.80;0.70;;;17.30;99.90;;;;;;5028873;28;20465;-76
2021/08/29 11:11:58;;;;;;;0.70;0.50;;;17.30;99.90;;;;;;5021016;28;20419;-77
2021/08/29 11:14:47;;;;;;;0.80;0.80;;;17.20;99.90;;;;;;5016051;28;20476;-78
2021/08/29 11:17:17;;;;;;;0.70;0.60;;;17.20;99.90;;;;;;5032210;28;20890;-77
2021/08/29 11:19:45;;;;;;;3.10;0.77;;;17.20;99.90;;;;;;5024371;28;20455;-76
2021/08/29 11:22:20;;;;;;;0.70;0.50;;;17.20;99.90;;;;;;5012495;28;20474;-77
2021/08/29 11:24:45;;;;;;;0.70;0.60;;;17.30;99.90;;;;;;5021027;28;20476;-77
2021/08/29 11:27:34;;;;;;;0.70;0.50;;;17.40;99.90;;;;;;5029554;28;20418;-77
2021/08/29 11:30:00;;;;;;;0.70;0.50;;;17.50;99.90;;;;;;5023970;28;20180;-78
2021/08/29 11:32:45;;;;;;;0.80;0.60;;;17.50;99.90;;;;;;5015699;28;20419;-77
2021/08/29 11:35:17;;;;;;;0.70;0.50;;;17.40;99.90;;;;;;5012181;28;20484;-77
2021/08/29 11:38:11;;;;;;;0.90;0.80;;;17.50;99.90;;;;;;5020518;28;20418;-76
2021/08/29 11:40:59;;;;;;;0.70;0.60;;;17.50;99.90;;;;;;5017234;28;20462;-77
2021/08/29 11:43:27;;;;;;;0.80;0.70;;;17.40;99.90;;;;;;5025811;28;20410;-77
2021/08/29 11:46:00;;;;;;;1.97;0.80;;;17.40;99.90;;;;;;5017402;28;20403;-77
2021/08/29 11:48:28;;;;;;;0.70;0.50;;;17.40;99.90;;;;;;5028043;28;20561;-78
2021/08/29 11:50:55;;;;;;;1.00;0.90;;;17.30;99.90;;;;;;5020541;28;20517;-77
2021/08/29 11:53:21;;;;;;;0.70;0.60;;;17.40;99.90;;;;;;5018315;28;20429;-77
2021/08/29 11:55:53;;;;;;;0.70;0.50;;;17.40;99.90;;;;;;5011016;28;20496;-77
2021/08/29 11:58:20;;;;;;;1.27;1.17;;;17.30;99.90;;;;;;5014669;28;20461;-78
2021/08/29 12:00:49;;;;;;;1.00;0.80;;;17.30;99.90;;;;;;5013316;28;20453;-77
2021/08/29 12:03:17;;;;;;;0.80;0.50;;;17.40;99.90;;;;;;5013818;28;20435;-77
2021/08/29 12:06:20;;;;;;;0.70;0.57;;;17.40;99.90;;;;;;5011356;28;20431;-77
2021/08/29 12:08:51;;;;;;;1.33;1.23;;;17.30;99.90;;;;;;4992374;28;20550;-77
2021/08/29 12:11:18;;;;;;;0.70;0.60;;;17.40;99.90;;;;;;5013937;28;20426;-77
2021/08/29 12:13:44;;;;;;;1.53;0.83;;;17.40;99.90;;;;;;5012807;28;20441;-75
2021/08/29 12:16:09;;;;;;;0.70;0.60;;;17.40;99.90;;;;;;5016037;28;20525;-76
2021/08/29 12:18:38;;;;;;;0.90;0.70;;;17.40;99.90;;;;;;5014783;28;20657;-76
2021/08/29 12:21:07;;;;;;;1.00;0.87;;;17.50;99.90;;;;;;5011157;28;20293;-77
2021/08/29 12:23:34;;;;;;;0.97;0.87;;;17.50;99.90;;;;;;5014810;28;20514;-77
2021/08/29 12:26:03;;;;;;;0.80;0.60;;;17.60;99.90;;;;;;5015376;28;20438;-77
2021/08/29 12:28:28;;;;;;;0.70;0.50;;;17.60;99.90;;;;;;5010881;28;20431;-76
2021/08/29 12:30:56;;;;;;;0.70;0.50;;;17.60;99.90;;;;;;5018646;28;20407;-78
2021/08/29 12:33:23;;;;;;;0.70;0.50;;;17.60;99.90;;;;;;5017460;28;20168;-77
2021/08/29 12:35:49;;;;;;;0.70;0.60;;;17.50;99.90;;;;;;5022589;28;20430;-77
2021/08/29 12:38:19;;;;;;;0.80;0.73;;;17.60;99.90;;;;;;5020042;28;20449;-77
2021/08/29 12:40:45;;;;;;;0.93;0.83;;;17.60;99.90;;;;;;5012677;28;20464;-78
2021/08/29 12:43:11;;;;;;;1.20;1.10;;;17.60;99.90;;;;;;5016863;28;20430;-77
2021/08/29 12:45:36;;;;;;;1.67;1.30;;;17.60;99.90;;;;;;5019157;28;20451;-77
2021/08/29 12:48:03;;;;;;;0.80;0.60;;;17.50;99.90;;;;;;5013625;28;20199;-75
2021/08/29 12:50:29;;;;;;;1.83;1.73;;;17.50;99.90;;;;;;5019310;28;20211;-77